createdAt,value
2022-12-01T00:00:55.304Z,15.20
2022-12-01T00:01:57.496Z,15.68
2022-12-01T00:02:59.754Z,15.45
2022-12-01T00:04:01.678Z,15.07
2022-12-01T00:05:03.661Z,14.73
2022-12-01T00:06:09.822Z,14.80
2022-12-01T00:07:11.745Z,15.80
2022-12-01T00:08:13.629Z,14.13
2022-12-01T00:09:33.834Z,14.70
2022-12-01T00:10:36.020Z,15.18
2022-12-01T00:11:38.844Z,14.70
2022-12-01T00:12:43.675Z,15.00
2022-12-01T00:13:45.581Z,15.48
2022-12-01T00:14:55.169Z,15.93
2022-12-01T00:15:59.446Z,15.98
2022-12-01T00:17:01.374Z,15.15
2022-12-01T00:18:07.932Z,15.13
2022-12-01T00:19:10.092Z,14.68
2022-12-01T00:20:12.757Z,15.60
2022-12-01T00:21:15.809Z,14.73
2022-12-01T00:22:17.892Z,14.57
2022-12-01T00:23:19.805Z,16.00
2022-12-01T00:24:23.552Z,15.60
2022-12-01T00:25:25.800Z,15.27
2022-12-01T00:26:28.270Z,16.38
2022-12-01T00:27:30.255Z,15.15
2022-12-01T00:28:32.438Z,14.27
2022-12-01T00:29:34.377Z,15.32
2022-12-01T00:30:36.524Z,14.95
2022-12-01T00:31:38.518Z,16.08
2022-12-01T00:32:40.464Z,16.85
2022-12-01T00:33:42.263Z,16.27
2022-12-01T00:34:44.140Z,16.73
2022-12-01T00:35:45.986Z,16.70
2022-12-01T00:36:47.848Z,15.25
2022-12-01T00:37:49.714Z,15.70
2022-12-01T00:38:55.975Z,15.95
2022-12-01T00:39:58.695Z,15.60
2022-12-01T00:41:00.606Z,14.55
2022-12-01T00:42:02.507Z,14.70
2022-12-01T00:43:04.385Z,14.27
2022-12-01T00:44:06.327Z,14.02
2022-12-01T00:45:08.793Z,14.63
2022-12-01T00:46:10.941Z,14.60
2022-12-01T00:47:13.087Z,14.43
2022-12-01T00:48:16.210Z,14.73
2022-12-01T00:49:18.144Z,14.40
2022-12-01T00:50:19.951Z,14.63
2022-12-01T00:51:21.742Z,15.52
2022-12-01T00:52:23.878Z,15.45
2022-12-01T00:53:25.789Z,15.70
2022-12-01T00:54:27.687Z,14.32
2022-12-01T00:55:29.654Z,14.65
2022-12-01T00:56:31.820Z,15.80
2022-12-01T00:57:33.671Z,15.18
2022-12-01T00:58:35.588Z,15.10
2022-12-01T00:59:37.368Z,14.75
2022-12-01T01:00:39.267Z,16.13
2022-12-01T01:01:41.254Z,14.75
2022-12-01T01:02:43.414Z,15.60
2022-12-01T01:03:45.236Z,15.43
2022-12-01T01:04:47.395Z,14.50
2022-12-01T01:05:49.323Z,14.10
2022-12-01T01:06:51.266Z,14.50
2022-12-01T01:07:53.169Z,14.98
2022-12-01T01:08:55.423Z,15.40
2022-12-01T01:09:57.272Z,15.65
2022-12-01T01:11:00.497Z,15.00
2022-12-01T01:12:02.247Z,15.43
2022-12-01T01:13:04.138Z,14.48
2022-12-01T01:14:06.355Z,14.60
2022-12-01T01:15:08.757Z,15.02
2022-12-01T01:16:16.543Z,15.80
2022-12-01T01:17:18.520Z,15.80
2022-12-01T01:18:20.418Z,15.50
2022-12-01T01:19:23.169Z,16.05
2022-12-01T01:20:25.115Z,14.63
2022-12-01T01:21:27.858Z,15.95
2022-12-01T01:22:29.707Z,15.70
2022-12-01T01:23:31.603Z,15.07
2022-12-01T01:24:33.453Z,15.35
2022-12-01T01:25:35.344Z,15.15
2022-12-01T01:26:38.250Z,15.20
2022-12-01T01:27:40.077Z,15.27
2022-12-01T01:28:42.500Z,16.48
2022-12-01T01:29:44.357Z,15.50
2022-12-01T01:30:47.096Z,16.70
2022-12-01T01:31:49.007Z,17.05
2022-12-01T01:32:51.127Z,17.48
2022-12-01T01:33:53.190Z,19.38
2022-12-01T01:34:55.107Z,19.33
2022-12-01T01:36:00.273Z,19.90
2022-12-01T01:37:02.145Z,19.08
2022-12-01T01:38:04.099Z,18.77
2022-12-01T01:39:05.996Z,18.73
2022-12-01T01:40:08.572Z,19.42
2022-12-01T01:41:10.761Z,20.58
2022-12-01T01:42:18.546Z,21.50
2022-12-01T01:43:47.573Z,21.75
2022-12-01T01:44:59.281Z,20.77
2022-12-01T01:46:01.162Z,20.85
2022-12-01T01:47:02.983Z,20.55
2022-12-01T01:48:04.931Z,21.02
2022-12-01T01:49:10.444Z,20.90
2022-12-01T01:50:16.030Z,21.00
2022-12-01T01:51:22.695Z,21.63
2022-12-01T01:52:25.129Z,23.27
2022-12-01T01:53:27.345Z,22.75
2022-12-01T01:54:36.035Z,26.98
2022-12-01T01:55:38.819Z,26.73
2022-12-01T01:56:40.693Z,26.73
2022-12-01T01:57:43.514Z,27.33
2022-12-01T01:58:45.694Z,28.30
2022-12-01T01:59:53.898Z,28.75
2022-12-01T02:00:56.294Z,29.05
2022-12-01T02:02:06.248Z,30.02
2022-12-01T02:03:11.454Z,29.17
2022-12-01T02:04:14.597Z,30.73
2022-12-01T02:05:22.782Z,31.95
2022-12-01T02:06:24.930Z,32.50
2022-12-01T02:07:27.141Z,33.13
2022-12-01T02:08:29.705Z,33.53
2022-12-01T02:09:31.822Z,34.10
2022-12-01T02:11:04.293Z,35.30
2022-12-01T02:12:36.651Z,34.85
2022-12-01T02:13:51.473Z,35.05
2022-12-01T02:15:20.802Z,35.53
2022-12-01T02:16:41.947Z,35.78
2022-12-01T02:18:17.712Z,35.10
2022-12-01T02:19:52.802Z,34.83
2022-12-01T02:21:00.627Z,33.60
2022-12-01T02:22:17.798Z,34.67
2022-12-01T02:23:19.660Z,33.92
2022-12-01T02:24:45.874Z,34.53
2022-12-01T02:26:22.438Z,34.03
2022-12-01T02:28:17.741Z,35.85
2022-12-01T02:29:28.411Z,38.22
2022-12-01T02:30:56.524Z,37.60
2022-12-01T02:33:19.134Z,38.97
2022-12-01T02:34:30.081Z,41.53
2022-12-01T02:35:52.491Z,42.15
2022-12-01T02:36:58.282Z,40.60
2022-12-01T02:38:11.638Z,41.65
2022-12-01T02:39:35.387Z,42.65
2022-12-01T02:40:41.844Z,42.22
2022-12-01T02:41:51.198Z,44.67
2022-12-01T02:43:06.574Z,43.80
2022-12-01T02:44:22.407Z,46.50
2022-12-01T02:45:34.757Z,57.10
2022-12-01T02:47:11.243Z,59.35
2022-12-01T02:48:20.945Z,59.17
2022-12-01T02:49:36.427Z,67.35
2022-12-01T02:50:39.898Z,71.88
2022-12-01T02:51:47.171Z,68.22
2022-12-01T02:52:49.729Z,69.85
2022-12-01T02:53:53.209Z,70.10
2022-12-01T02:54:56.555Z,69.15
2022-12-01T02:55:59.235Z,69.70
2022-12-01T02:57:01.021Z,70.25
2022-12-01T02:58:03.179Z,66.32
2022-12-01T02:59:26.200Z,61.10
2022-12-01T03:00:31.107Z,56.72
2022-12-01T03:01:46.416Z,51.38
2022-12-01T03:03:13.422Z,42.47
2022-12-01T03:04:52.415Z,34.58
2022-12-01T03:06:08.501Z,34.25
2022-12-01T03:07:51.820Z,29.30
2022-12-01T03:09:27.445Z,26.52
2022-12-01T03:10:41.438Z,25.02
2022-12-01T03:11:57.308Z,24.38
2022-12-01T03:13:02.357Z,23.48
2022-12-01T03:14:19.870Z,23.10
2022-12-01T03:15:30.502Z,23.88
2022-12-01T03:16:47.858Z,24.85
2022-12-01T03:18:13.789Z,22.70
2022-12-01T03:19:22.364Z,22.90
2022-12-01T03:20:59.814Z,23.45
2022-12-01T03:22:15.229Z,20.38
2022-12-01T03:23:22.339Z,21.63
2022-12-01T03:24:27.659Z,19.73
2022-12-01T03:25:31.652Z,20.13
2022-12-01T03:26:36.742Z,20.50
2022-12-01T03:28:00.611Z,19.80
2022-12-01T03:29:41.861Z,19.75
2022-12-01T03:30:46.179Z,18.20
2022-12-01T03:31:53.799Z,20.83
2022-12-01T03:33:01.103Z,21.23
2022-12-01T03:34:26.329Z,20.55
2022-12-01T03:35:51.100Z,20.75
2022-12-01T03:36:59.359Z,19.73
2022-12-01T03:38:11.164Z,19.60
2022-12-01T03:39:17.194Z,20.35
2022-12-01T03:40:23.641Z,20.48
2022-12-01T03:41:31.314Z,20.65
2022-12-01T03:42:37.694Z,20.88
2022-12-01T03:43:44.351Z,20.08
2022-12-01T03:44:50.918Z,20.30
2022-12-01T03:45:59.448Z,19.25
2022-12-01T03:47:06.394Z,19.73
2022-12-01T03:48:08.721Z,18.40
2022-12-01T03:49:11.032Z,20.27
2022-12-01T03:50:14.370Z,19.40
2022-12-01T03:51:31.415Z,19.38
2022-12-01T03:52:51.854Z,18.95
2022-12-01T03:54:04.081Z,19.15
2022-12-01T03:55:24.963Z,19.42
2022-12-01T03:56:32.751Z,19.38
2022-12-01T03:58:05.629Z,19.90
2022-12-01T03:59:10.580Z,18.45
2022-12-01T04:00:14.835Z,19.98
2022-12-01T04:01:16.781Z,20.15
2022-12-01T04:02:19.249Z,20.17
2022-12-01T04:03:24.894Z,19.85
2022-12-01T04:04:27.020Z,19.92
2022-12-01T04:05:29.211Z,20.45
2022-12-01T04:06:31.084Z,20.42
2022-12-01T04:07:33.078Z,19.23
2022-12-01T04:08:37.362Z,19.60
2022-12-01T04:09:41.403Z,19.40
2022-12-01T04:10:43.758Z,21.15
2022-12-01T04:12:14.791Z,20.88
2022-12-01T04:13:23.051Z,20.63
2022-12-01T04:14:25.053Z,20.55
2022-12-01T04:15:27.777Z,19.67
2022-12-01T04:16:29.628Z,20.42
2022-12-01T04:17:32.305Z,20.02
2022-12-01T04:18:34.233Z,20.83
2022-12-01T04:19:36.330Z,20.55
2022-12-01T04:20:38.418Z,20.98
2022-12-01T04:21:40.481Z,20.13
2022-12-01T04:22:42.834Z,21.23
2022-12-01T04:24:02.817Z,20.15
2022-12-01T04:25:06.627Z,19.83
2022-12-01T04:26:14.257Z,20.13
2022-12-01T04:27:17.914Z,19.60
2022-12-01T04:28:20.207Z,20.55
2022-12-01T04:29:22.097Z,19.17
2022-12-01T04:30:24.006Z,20.75
2022-12-01T04:31:26.032Z,19.60
2022-12-01T04:32:27.952Z,20.40
2022-12-01T04:33:30.147Z,19.00
2022-12-01T04:34:32.133Z,19.80
2022-12-01T04:35:34.040Z,18.45
2022-12-01T04:36:36.335Z,20.02
2022-12-01T04:37:38.682Z,20.02
2022-12-01T04:38:40.600Z,19.15
2022-12-01T04:39:42.678Z,19.08
2022-12-01T04:40:44.597Z,19.17
2022-12-01T04:41:46.450Z,20.45
2022-12-01T04:42:48.283Z,22.05
2022-12-01T04:43:52.203Z,21.50
2022-12-01T04:44:54.170Z,23.40
2022-12-01T04:45:56.092Z,27.92
2022-12-01T04:46:58.358Z,31.92
2022-12-01T04:48:00.603Z,31.42
2022-12-01T04:49:02.743Z,28.83
2022-12-01T04:50:05.105Z,27.63
2022-12-01T04:51:08.625Z,26.85
2022-12-01T04:52:10.376Z,26.02
2022-12-01T04:53:12.222Z,26.15
2022-12-01T04:54:14.668Z,26.55
2022-12-01T04:55:16.890Z,26.63
2022-12-01T04:56:19.017Z,27.02
2022-12-01T04:57:20.859Z,25.38
2022-12-01T04:58:22.670Z,26.13
2022-12-01T04:59:24.641Z,27.30
2022-12-01T05:00:26.477Z,28.38
2022-12-01T05:01:29.022Z,29.40
2022-12-01T05:02:31.239Z,28.45
2022-12-01T05:03:37.569Z,27.63
2022-12-01T05:04:41.638Z,29.65
2022-12-01T05:05:43.590Z,36.58
2022-12-01T05:06:45.763Z,41.15
2022-12-01T05:07:47.647Z,43.60
2022-12-01T05:08:50.491Z,38.72
2022-12-01T05:09:52.852Z,42.58
2022-12-01T05:10:58.337Z,29.98
2022-12-01T05:12:00.596Z,29.73
2022-12-01T05:13:03.365Z,31.98
2022-12-01T05:14:05.476Z,28.45
2022-12-01T05:15:09.575Z,24.98
2022-12-01T05:16:17.578Z,23.77
2022-12-01T05:17:19.530Z,23.42
2022-12-01T05:18:21.526Z,24.05
2022-12-01T05:19:42.071Z,23.13
2022-12-01T05:20:58.823Z,19.80
2022-12-01T05:22:00.606Z,20.55
2022-12-01T05:23:06.439Z,20.42
2022-12-01T05:24:09.831Z,22.20
2022-12-01T05:25:11.725Z,20.38
2022-12-01T05:26:13.636Z,19.95
2022-12-01T05:27:15.385Z,21.88
2022-12-01T05:28:17.584Z,24.83
2022-12-01T05:29:19.658Z,30.58
2022-12-01T05:30:25.656Z,28.00
2022-12-01T05:31:31.414Z,24.30
2022-12-01T05:32:33.382Z,31.30
2022-12-01T05:33:35.359Z,29.70
2022-12-01T05:34:37.348Z,29.58
2022-12-01T05:35:40.750Z,29.67
2022-12-01T05:36:42.716Z,20.88
2022-12-01T05:37:44.468Z,19.10
2022-12-01T05:38:46.268Z,19.40
2022-12-01T05:39:49.103Z,19.00
2022-12-01T05:40:53.303Z,18.38
2022-12-01T05:41:55.259Z,19.17
2022-12-01T05:42:58.087Z,19.95
2022-12-01T05:44:00.204Z,20.35
2022-12-01T05:45:02.142Z,20.05
2022-12-01T05:46:04.519Z,20.45
2022-12-01T05:47:07.873Z,26.63
2022-12-01T05:48:09.877Z,25.10
2022-12-01T05:49:12.607Z,23.42
2022-12-01T05:50:16.489Z,24.58
2022-12-01T05:51:20.500Z,24.70
2022-12-01T05:52:25.544Z,22.42
2022-12-01T05:53:27.876Z,22.60
2022-12-01T05:54:30.669Z,23.73
2022-12-01T05:55:35.630Z,23.65
2022-12-01T05:56:40.313Z,24.65
2022-12-01T05:57:42.346Z,23.10
2022-12-01T05:58:44.372Z,20.27
2022-12-01T05:59:47.625Z,21.73
2022-12-01T06:00:49.824Z,21.38
2022-12-01T06:01:51.728Z,19.58
2022-12-01T06:02:53.610Z,20.55
2022-12-01T06:03:55.551Z,18.80
2022-12-01T06:04:57.792Z,18.75
2022-12-01T06:05:59.671Z,19.45
2022-12-01T06:07:01.578Z,19.92
2022-12-01T06:08:03.508Z,19.58
2022-12-01T06:09:05.582Z,19.08
2022-12-01T06:10:09.681Z,18.65
2022-12-01T06:11:11.983Z,17.23
2022-12-01T06:12:14.017Z,18.77
2022-12-01T06:13:16.107Z,18.50
2022-12-01T06:14:18.042Z,19.30
2022-12-01T06:15:20.132Z,19.45
2022-12-01T06:16:22.050Z,18.92
2022-12-01T06:17:24.057Z,19.10
2022-12-01T06:18:27.674Z,19.77
2022-12-01T06:19:29.947Z,19.38
2022-12-01T06:20:31.911Z,19.48
2022-12-01T06:21:33.787Z,18.85
2022-12-01T06:22:35.675Z,18.45
2022-12-01T06:23:37.683Z,20.50
2022-12-01T06:24:39.577Z,19.55
2022-12-01T06:25:41.456Z,20.48
2022-12-01T06:26:43.336Z,21.52
2022-12-01T06:27:45.618Z,22.60
2022-12-01T06:28:47.515Z,18.63
2022-12-01T06:29:49.991Z,19.50
2022-12-01T06:30:55.500Z,20.55
2022-12-01T06:32:01.439Z,21.05
2022-12-01T06:33:03.527Z,22.20
2022-12-01T06:34:05.412Z,19.63
2022-12-01T06:35:08.977Z,18.58
2022-12-01T06:36:11.101Z,18.55
2022-12-01T06:37:15.910Z,20.33
2022-12-01T06:38:19.315Z,19.08
2022-12-01T06:39:21.191Z,18.77
2022-12-01T06:40:23.149Z,18.92
2022-12-01T06:41:25.035Z,19.63
2022-12-01T06:42:30.776Z,20.08
2022-12-01T06:43:32.739Z,19.60
2022-12-01T06:44:34.666Z,19.80
2022-12-01T06:45:36.655Z,18.60
2022-12-01T06:46:38.561Z,19.73
2022-12-01T06:47:41.049Z,19.58
2022-12-01T06:48:43.052Z,21.52
2022-12-01T06:49:45.101Z,21.52
2022-12-01T06:50:46.993Z,21.38
2022-12-01T06:51:50.054Z,22.27
2022-12-01T06:52:54.835Z,21.63
2022-12-01T06:54:02.143Z,21.33
2022-12-01T06:55:07.531Z,19.10
2022-12-01T06:56:11.609Z,20.33
2022-12-01T06:57:13.999Z,19.63
2022-12-01T06:58:16.438Z,19.77
2022-12-01T06:59:19.948Z,19.30
2022-12-01T07:00:24.081Z,19.48
2022-12-01T07:01:26.361Z,19.15
2022-12-01T07:02:28.360Z,27.42
2022-12-01T07:03:30.283Z,44.92
2022-12-01T07:04:32.270Z,57.13
2022-12-01T07:05:34.324Z,73.40
2022-12-01T07:06:36.238Z,61.20
2022-12-01T07:07:39.364Z,57.92
2022-12-01T07:08:42.689Z,80.40
2022-12-01T07:09:45.012Z,79.50
2022-12-01T07:10:56.032Z,61.78
2022-12-01T07:11:57.851Z,39.92
2022-12-01T07:12:59.813Z,31.05
2022-12-01T07:14:01.721Z,30.13
2022-12-01T07:15:05.149Z,28.80
2022-12-01T07:16:08.391Z,25.77
2022-12-01T07:17:10.916Z,24.08
2022-12-01T07:18:12.915Z,23.95
2022-12-01T07:19:15.297Z,24.65
2022-12-01T07:20:17.320Z,24.23
2022-12-01T07:21:19.375Z,23.33
2022-12-01T07:22:21.588Z,24.13
2022-12-01T07:23:23.605Z,24.02
2022-12-01T07:24:25.950Z,23.98
2022-12-01T07:25:27.852Z,24.25
2022-12-01T07:26:29.859Z,24.58
2022-12-01T07:27:32.777Z,25.40
2022-12-01T07:28:35.057Z,24.25
2022-12-01T07:29:36.920Z,28.17
2022-12-01T07:30:39.223Z,30.83
2022-12-01T07:31:41.382Z,28.52
2022-12-01T07:32:43.612Z,30.80
2022-12-01T07:33:45.798Z,27.38
2022-12-01T07:34:47.700Z,21.95
2022-12-01T07:35:49.660Z,23.65
2022-12-01T07:36:51.611Z,23.17
2022-12-01T07:37:56.960Z,22.10
2022-12-01T07:38:59.363Z,23.15
2022-12-01T07:40:01.564Z,23.02
2022-12-01T07:41:05.934Z,22.70
2022-12-01T07:42:07.877Z,22.92
2022-12-01T07:43:09.867Z,20.90
2022-12-01T07:44:12.050Z,20.90
2022-12-01T07:45:14.165Z,19.45
2022-12-01T07:46:25.253Z,21.38
2022-12-01T07:47:27.522Z,20.83
2022-12-01T07:48:30.331Z,20.75
2022-12-01T07:49:32.227Z,20.77
2022-12-01T07:50:34.394Z,21.48
2022-12-01T07:51:36.462Z,21.13
2022-12-01T07:52:38.650Z,20.52
2022-12-01T07:53:40.647Z,21.05
2022-12-01T07:54:42.863Z,21.77
2022-12-01T07:55:49.432Z,24.70
2022-12-01T07:56:51.523Z,26.33
2022-12-01T07:57:53.827Z,25.38
2022-12-01T07:58:56.486Z,26.63
2022-12-01T07:59:58.664Z,24.58
2022-12-01T08:01:09.975Z,24.38
2022-12-01T08:02:12.317Z,21.35
2022-12-01T08:03:14.713Z,23.38
2022-12-01T08:04:17.025Z,22.70
2022-12-01T08:05:18.959Z,22.80
2022-12-01T08:06:22.351Z,22.27
2022-12-01T08:07:29.569Z,22.92
2022-12-01T08:08:33.606Z,27.17
2022-12-01T08:09:35.620Z,26.98
2022-12-01T08:10:38.021Z,29.40
2022-12-01T08:11:40.173Z,27.95
2022-12-01T08:12:42.199Z,27.70
2022-12-01T08:13:44.863Z,26.85
2022-12-01T08:14:46.818Z,25.45
2022-12-01T08:15:48.824Z,30.15
2022-12-01T08:16:50.851Z,27.10
2022-12-01T08:17:52.933Z,26.85
2022-12-01T08:18:55.295Z,24.00
2022-12-01T08:19:57.393Z,25.00
2022-12-01T08:20:59.314Z,26.45
2022-12-01T08:22:01.639Z,27.65
2022-12-01T08:23:04.765Z,26.42
2022-12-01T08:24:07.814Z,24.05
2022-12-01T08:25:12.757Z,21.27
2022-12-01T08:26:17.843Z,22.02
2022-12-01T08:27:20.007Z,21.33
2022-12-01T08:28:21.988Z,20.35
2022-12-01T08:29:23.929Z,22.25
2022-12-01T08:30:26.002Z,19.98
2022-12-01T08:31:37.972Z,21.42
2022-12-01T08:32:40.312Z,21.60
2022-12-01T08:33:42.395Z,21.65
2022-12-01T08:34:47.202Z,21.17
2022-12-01T08:35:51.809Z,21.17
2022-12-01T08:36:53.929Z,19.20
2022-12-01T08:37:55.914Z,19.75
2022-12-01T08:38:57.942Z,20.40
2022-12-01T08:40:00.085Z,20.15
2022-12-01T08:41:04.344Z,19.98
2022-12-01T08:42:07.142Z,19.60
2022-12-01T08:43:15.188Z,19.60
2022-12-01T08:44:24.941Z,19.00
2022-12-01T08:45:26.854Z,17.15
2022-12-01T08:46:34.033Z,19.05
2022-12-01T08:47:36.391Z,18.25
2022-12-01T08:48:39.273Z,19.67
2022-12-01T08:49:41.132Z,19.23
2022-12-01T08:50:43.421Z,20.50
2022-12-01T08:51:45.416Z,21.90
2022-12-01T08:52:48.810Z,21.67
2022-12-01T08:53:50.779Z,20.75
2022-12-01T08:54:52.983Z,21.70
2022-12-01T08:55:55.226Z,21.40
2022-12-01T08:56:57.248Z,22.27
2022-12-01T08:57:59.222Z,22.90
2022-12-01T08:59:02.155Z,25.05
2022-12-01T09:00:05.650Z,23.50
2022-12-01T09:01:13.611Z,23.73
2022-12-01T09:02:16.257Z,22.83
2022-12-01T09:03:18.291Z,23.83
2022-12-01T09:04:25.014Z,24.50
2022-12-01T09:05:26.942Z,24.83
2022-12-01T09:06:29.221Z,22.75
2022-12-01T09:07:31.380Z,25.05
2022-12-01T09:08:34.525Z,25.10
2022-12-01T09:09:37.583Z,23.73
2022-12-01T09:10:39.469Z,23.65
2022-12-01T09:11:41.545Z,19.75
2022-12-01T09:12:43.506Z,21.00
2022-12-01T09:13:51.326Z,20.65
2022-12-01T09:14:56.543Z,20.92
2022-12-01T09:16:04.777Z,23.55
2022-12-01T09:17:08.830Z,21.05
2022-12-01T09:18:10.791Z,20.30
2022-12-01T09:19:20.500Z,21.33
2022-12-01T09:20:25.878Z,23.88
2022-12-01T09:21:33.490Z,20.88
2022-12-01T09:22:35.401Z,19.60
2022-12-01T09:23:38.524Z,20.13
2022-12-01T09:24:40.826Z,21.33
2022-12-01T09:25:42.805Z,20.85
2022-12-01T09:26:45.364Z,20.50
2022-12-01T09:27:47.892Z,21.33
2022-12-01T09:28:54.617Z,22.70
2022-12-01T09:29:56.588Z,22.92
2022-12-01T09:31:07.940Z,22.88
2022-12-01T09:32:09.894Z,21.98
2022-12-01T09:33:12.815Z,22.02
2022-12-01T09:34:20.163Z,23.30
2022-12-01T09:35:23.569Z,20.58
2022-12-01T09:36:26.292Z,17.70
2022-12-01T09:37:28.296Z,16.67
2022-12-01T09:38:32.221Z,16.67
2022-12-01T09:39:34.041Z,17.20
2022-12-01T09:40:39.703Z,18.63
2022-12-01T09:41:49.205Z,18.38
2022-12-01T09:42:51.495Z,19.40
2022-12-01T09:44:16.758Z,18.17
2022-12-01T09:45:29.236Z,17.55
2022-12-01T09:46:37.557Z,17.10
2022-12-01T09:47:40.510Z,17.45
2022-12-01T09:48:45.802Z,17.70
2022-12-01T09:49:56.574Z,17.17
2022-12-01T09:50:59.469Z,15.73
2022-12-01T09:52:02.128Z,15.98
2022-12-01T09:53:08.729Z,15.88
2022-12-01T09:54:13.807Z,16.02
2022-12-01T09:55:20.160Z,17.73
2022-12-01T09:56:34.639Z,17.92
2022-12-01T09:57:41.339Z,18.25
2022-12-01T09:58:43.659Z,20.30
2022-12-01T09:59:46.633Z,19.00
2022-12-01T10:00:50.631Z,17.92
2022-12-01T10:01:57.382Z,18.40
2022-12-01T10:03:23.147Z,17.55
2022-12-01T10:04:31.620Z,17.42
2022-12-01T10:06:10.463Z,18.38
2022-12-01T10:07:23.491Z,16.48
2022-12-01T10:08:31.752Z,17.23
2022-12-01T10:09:40.198Z,16.52
2022-12-01T10:10:48.427Z,17.40
2022-12-01T10:11:56.074Z,16.95
2022-12-01T10:12:58.266Z,15.68
2022-12-01T10:14:01.108Z,17.10
2022-12-01T10:15:16.983Z,17.58
2022-12-01T10:16:26.716Z,15.98
2022-12-01T10:17:55.307Z,17.38
2022-12-01T10:19:03.324Z,16.80
2022-12-01T10:20:23.845Z,16.38
2022-12-01T10:21:54.022Z,16.40
2022-12-01T10:23:57.535Z,15.60
2022-12-01T10:25:20.615Z,14.02
2022-12-01T10:26:32.641Z,15.02
2022-12-01T10:27:55.902Z,14.80
2022-12-01T10:29:27.727Z,14.77
2022-12-01T10:30:30.290Z,13.70
2022-12-01T10:31:38.617Z,14.20
2022-12-01T10:32:58.359Z,14.65
2022-12-01T10:34:16.039Z,16.17
2022-12-01T10:35:30.599Z,16.10
2022-12-01T10:36:34.424Z,16.50
2022-12-01T10:37:38.018Z,17.25
2022-12-01T10:38:40.137Z,17.13
2022-12-01T10:39:44.692Z,16.33
2022-12-01T10:40:46.696Z,16.27
2022-12-01T10:41:49.879Z,16.45
2022-12-01T10:42:52.466Z,16.48
2022-12-01T10:44:00.789Z,17.85
2022-12-01T10:45:13.833Z,14.30
2022-12-01T10:46:25.057Z,15.13
2022-12-01T10:48:30.044Z,14.95
2022-12-01T10:49:38.300Z,15.13
2022-12-01T10:50:41.276Z,16.23
2022-12-01T10:51:57.869Z,17.35
2022-12-01T10:53:00.391Z,17.95
2022-12-01T10:54:11.765Z,17.52
2022-12-01T10:55:22.765Z,15.40
2022-12-01T10:56:24.961Z,27.58
2022-12-01T10:57:29.723Z,25.70
2022-12-01T10:58:34.383Z,22.52
2022-12-01T10:59:50.219Z,18.73
2022-12-01T11:01:05.966Z,20.48
2022-12-01T11:02:19.953Z,16.40
2022-12-01T11:03:30.837Z,14.75
2022-12-01T11:04:46.152Z,13.85
2022-12-01T11:05:54.047Z,13.57
2022-12-01T11:06:56.023Z,14.38
2022-12-01T11:07:58.162Z,15.50
2022-12-01T11:09:06.731Z,14.68
2022-12-01T11:10:24.323Z,15.13
2022-12-01T11:11:32.421Z,17.70
2022-12-01T11:12:34.857Z,16.17
2022-12-01T11:13:37.201Z,15.45
2022-12-01T11:14:42.497Z,16.33
2022-12-01T11:15:54.304Z,15.30
2022-12-01T11:16:56.344Z,14.60
2022-12-01T11:18:03.645Z,15.63
2022-12-01T11:19:32.669Z,15.30
2022-12-01T11:20:40.619Z,14.48
2022-12-01T11:21:51.487Z,24.15
2022-12-01T11:23:14.694Z,25.98
2022-12-01T11:24:33.804Z,23.75
2022-12-01T11:25:37.167Z,17.17
2022-12-01T11:26:39.130Z,17.35
2022-12-01T11:27:53.312Z,18.15
2022-12-01T11:29:15.296Z,16.63
2022-12-01T11:30:25.888Z,16.67
2022-12-01T11:31:40.966Z,15.05
2022-12-01T11:32:56.957Z,17.55
2022-12-01T11:33:58.979Z,14.80
2022-12-01T11:35:04.658Z,13.63
2022-12-01T11:36:11.807Z,15.23
2022-12-01T11:37:21.082Z,16.67
2022-12-01T11:39:52.898Z,22.27
2022-12-01T11:41:52.095Z,19.75
2022-12-01T11:43:06.113Z,15.48
2022-12-01T11:45:02.722Z,15.57
2022-12-01T11:45:55.666Z,16.48
2022-12-01T11:47:23.137Z,14.93
2022-12-01T11:48:31.801Z,15.95
2022-12-01T11:49:46.895Z,16.77
2022-12-01T11:51:07.643Z,15.13
2022-12-01T11:52:27.704Z,15.18
2022-12-01T11:53:36.181Z,14.38
2022-12-01T11:54:38.481Z,14.02
2022-12-01T11:55:41.545Z,13.52
2022-12-01T11:56:46.716Z,14.23
2022-12-01T11:57:53.327Z,14.98
2022-12-01T11:59:10.816Z,17.23
2022-12-01T12:00:26.099Z,14.68
2022-12-01T12:02:05.653Z,13.02
2022-12-01T12:03:31.015Z,14.45
2022-12-01T12:04:42.991Z,18.17
2022-12-01T12:06:39.099Z,16.60
2022-12-01T12:07:52.521Z,14.38
2022-12-01T12:09:10.966Z,14.02
2022-12-01T12:10:31.895Z,13.60
2022-12-01T12:11:48.586Z,14.18
2022-12-01T12:13:20.402Z,14.48
2022-12-01T12:14:43.397Z,13.23
2022-12-01T12:16:19.263Z,14.57
2022-12-01T12:17:33.357Z,14.50
2022-12-01T12:18:47.795Z,17.98
2022-12-01T12:20:22.227Z,16.63
2022-12-01T12:22:04.769Z,13.80
2022-12-01T12:23:32.784Z,17.45
2022-12-01T12:24:59.966Z,21.67
2022-12-01T12:26:19.890Z,17.15
2022-12-01T12:28:15.039Z,15.32
2022-12-01T12:29:16.889Z,18.80
2022-12-01T12:30:29.838Z,18.08
2022-12-01T12:32:04.325Z,14.70
2022-12-01T12:33:22.479Z,13.40
2022-12-01T12:35:03.017Z,12.02
2022-12-01T12:36:19.643Z,13.52
2022-12-01T12:37:40.035Z,14.52
2022-12-01T12:39:15.072Z,12.32
2022-12-01T12:43:12.560Z,14.10
2022-12-01T12:44:50.690Z,13.02
2022-12-01T12:46:10.891Z,14.60
2022-12-01T12:47:15.681Z,13.52
2022-12-01T12:49:18.221Z,15.57
2022-12-01T12:50:47.696Z,14.05
2022-12-01T12:51:58.333Z,11.55
2022-12-01T12:53:08.894Z,13.55
2022-12-01T12:54:21.083Z,13.70
2022-12-01T12:55:38.982Z,13.40
2022-12-01T12:56:47.110Z,12.65
2022-12-01T12:57:58.009Z,12.40
2022-12-01T12:59:13.217Z,11.70
2022-12-01T13:00:18.883Z,11.88
2022-12-01T13:01:51.788Z,14.90
2022-12-01T13:03:14.944Z,16.35
2022-12-01T13:04:25.279Z,18.45
2022-12-01T13:05:41.782Z,17.30
2022-12-01T13:06:55.950Z,18.75
2022-12-01T13:08:16.071Z,19.73
2022-12-01T13:09:23.807Z,21.55
2022-12-01T13:10:32.650Z,17.63
2022-12-01T13:11:48.169Z,16.33
2022-12-01T13:12:57.989Z,14.90
2022-12-01T13:14:15.927Z,15.43
2022-12-01T13:15:20.699Z,15.65
2022-12-01T13:16:32.159Z,14.38
2022-12-01T13:17:38.380Z,15.23
2022-12-01T13:19:04.926Z,21.42
2022-12-01T13:20:13.383Z,20.23
2022-12-01T13:21:19.273Z,17.15
2022-12-01T13:22:27.803Z,16.95
2022-12-01T13:23:31.038Z,13.93
2022-12-01T13:24:33.493Z,19.15
2022-12-01T13:25:39.667Z,15.95
2022-12-01T13:26:45.390Z,14.00
2022-12-01T13:27:48.548Z,13.52
2022-12-01T13:28:54.461Z,12.93
2022-12-01T13:29:56.953Z,12.65
2022-12-01T13:31:10.647Z,12.05
2022-12-01T13:32:38.110Z,12.80
2022-12-01T13:33:53.416Z,13.20
2022-12-01T13:34:55.646Z,14.10
2022-12-01T13:36:29.830Z,13.70
2022-12-01T13:37:32.006Z,13.07
2022-12-01T13:38:34.806Z,12.82
2022-12-01T13:39:39.022Z,13.57
2022-12-01T13:40:40.948Z,14.88
2022-12-01T13:41:44.529Z,14.43
2022-12-01T13:43:08.907Z,14.77
2022-12-01T13:44:32.619Z,14.88
2022-12-01T13:45:36.907Z,15.85
2022-12-01T13:46:44.397Z,16.90
2022-12-01T13:47:55.397Z,16.80
2022-12-01T13:49:00.468Z,15.80
2022-12-01T13:50:43.092Z,16.55
2022-12-01T13:52:21.508Z,17.23
2022-12-01T13:53:23.314Z,15.63
2022-12-01T13:54:30.177Z,15.45
2022-12-01T13:55:32.192Z,16.55
2022-12-01T13:56:47.394Z,16.58
2022-12-01T13:58:13.123Z,16.63
2022-12-01T13:59:43.760Z,17.98
2022-12-01T14:00:46.122Z,16.90
2022-12-01T14:01:48.278Z,18.48
2022-12-01T14:03:20.929Z,21.48
2022-12-01T14:04:26.459Z,19.50
2022-12-01T14:05:40.666Z,18.45
2022-12-01T14:06:50.553Z,21.48
2022-12-01T14:07:54.211Z,20.55
2022-12-01T14:09:04.817Z,21.45
2022-12-01T14:10:24.484Z,21.00
2022-12-01T14:11:32.225Z,21.85
2022-12-01T14:12:38.351Z,31.77
2022-12-01T14:13:54.789Z,33.75
2022-12-01T14:15:02.849Z,38.45
2022-12-01T14:16:05.571Z,49.10
2022-12-01T14:17:21.954Z,42.05
2022-12-01T14:18:36.717Z,34.10
2022-12-01T14:19:53.742Z,28.73
2022-12-01T14:20:56.251Z,32.38
2022-12-01T14:21:59.151Z,33.63
2022-12-01T14:23:18.592Z,48.53
2022-12-01T14:24:24.056Z,69.03
2022-12-01T14:25:30.438Z,67.55
2022-12-01T14:26:44.831Z,56.67
2022-12-01T14:27:52.532Z,37.22
2022-12-01T14:29:00.258Z,30.30
2022-12-01T14:30:39.619Z,28.50
2022-12-01T14:31:44.817Z,21.60
2022-12-01T14:32:46.737Z,21.95
2022-12-01T14:33:59.089Z,17.38
2022-12-01T14:35:04.229Z,16.75
2022-12-01T14:36:24.807Z,15.93
2022-12-01T14:37:35.475Z,15.30
2022-12-01T14:38:37.676Z,15.18
2022-12-01T14:39:43.307Z,15.32
2022-12-01T14:40:45.288Z,15.57